Palatine — 9HA2152 — position and weather

sailwx.info

Track history (hours):
 
Tides and Currents Weather Stations Pressure Air Temp Water Temp Dewpoint Dewpoint Depression Visibility Wind Speed Wind Dir Waves Ship Positions

Palatine

Last reported at 2018-Jan-22 23:42 UTC. Time now 2018-Jan-23 20:10 UTC.
Position N 41°16' W 008°49'.

Length 194 m; draft 6.7 m.

Type: Ship. MMSI: 248064000.

Date/timePositionNaut miles runAvg speedWind from/ knotsBaromVisibWave heightAir tempDewpointWater temp
2018-Jan-22 23:42N 41°16' W 008°49'316.2
2018-Jan-22 23:30N 41°13' W 008°47'4 8.2
2018-Jan-22 23:00N 41°11' W 008°42'0 0.1
2018-Jan-22 22:30N 41°11' W 008°42'0 0.0
2018-Jan-22 22:00N 41°11' W 008°42'0 0.0
2018-Jan-22 21:30N 41°11' W 008°42'0 0.0
2018-Jan-22 20:59N 41°11' W 008°42'0 0.0
2018-Jan-22 20:29N 41°11' W 008°42'0 0.0
2018-Jan-22 19:59N 41°11' W 008°42'0 0.0
2018-Jan-22 19:29N 41°11' W 008°42'0 0.0
2018-Jan-22 18:58N 41°11' W 008°42'0 0.0
2018-Jan-22 18:27N 41°11' W 008°42'0 0.0
2018-Jan-22 17:57N 41°11' W 008°42'0 0.0
2018-Jan-22 17:27N 41°11' W 008°42'0 0.0
2018-Jan-22 16:57N 41°11' W 008°42'0 0.0
2018-Jan-22 16:27N 41°11' W 008°42'0 0.0
2018-Jan-22 15:56N 41°11' W 008°42'0 0.0
2018-Jan-22 15:26N 41°11' W 008°42'0 0.0
2018-Jan-22 14:56N 41°11' W 008°42'0 0.0
2018-Jan-22 14:26N 41°11' W 008°42'0 0.0
2018-Jan-22 13:56N 41°11' W 008°42'0 0.0
2018-Jan-22 13:25N 41°11' W 008°42'0 0.0
2018-Jan-22 12:55N 41°11' W 008°42'0 0.0
2018-Jan-22 12:25N 41°11' W 008°42'0 0.0
2018-Jan-22 11:55N 41°11' W 008°42'0 0.0
2018-Jan-22 11:31N 41°11' W 008°42'0 0.0
2018-Jan-22 11:00N 41°11' W 008°42'0 0.0
2018-Jan-22 10:30N 41°11' W 008°42'0 0.5
2018-Jan-22 10:01N 41°11' W 008°42'3 5.4
2018-Jan-22 09:31N 41°08' W 008°44'4 7.5
2018-Jan-22 08:57N 41°12' W 008°47'263 7.2
2018-Jan-20 20:15N 43°31' W 003°45'414.6
2018-Jan-20 20:00N 43°35' W 003°47'714.4
2018-Jan-20 19:30N 43°41' W 003°49'36512.7
2018-Jan-19 14:51N 49°44' W 004°48'514.9
2018-Jan-19 14:30N 49°48' W 004°43'815.3
2018-Jan-19 14:01N 49°54' W 004°36'714.6
2018-Jan-19 13:31N 49°58' W 004°26'915.8
2018-Jan-19 12:58N 49°59' W 004°13'715.0
2018-Jan-19 12:30N 50°01' W 004°02'811.8
2018-Jan-19 11:49N 50°02' W 003°50'2 2.4
2018-Jan-19 11:10N 50°03' W 003°47'0 0.0
2018-Jan-19 10:57N 50°03' W 003°47'0 0.1
2018-Jan-19 10:14N 50°03' W 003°47'0 1.8
2018-Jan-19 10:00N 50°03' W 003°48'1 2.1
2018-Jan-19 09:29N 50°03' W 003°50'510.0
2018-Jan-19 09:00N 50°06' W 003°44'714.5
2018-Jan-19 08:30N 50°11' W 003°36'714.8
2018-Jan-19 08:00N 50°17' W 003°30'815.4
2018-Jan-19 07:30N 50°25' W 003°27'5 9.7
2018-Jan-19 06:59N 50°30' W 003°28'0 0.1
2018-Jan-19 06:29N 50°30' W 003°28'0 0.1
2018-Jan-19 05:58N 50°30' W 003°28'0 0.1
2018-Jan-19 05:28N 50°30' W 003°28'0 0.1
2018-Jan-19 04:58N 50°30' W 003°28'0 0.0
2018-Jan-19 04:28N 50°30' W 003°28'0 0.0
2018-Jan-19 03:57N 50°30' W 003°28'0 0.0
2018-Jan-19 03:27N 50°30' W 003°28'0 0.1
2018-Jan-19 02:57N 50°30' W 003°28'0 0.1
2018-Jan-19 02:27N 50°30' W 003°28'0 0.1
2018-Jan-19 02:00N 50°30' W 003°28'5 9.5
2018-Jan-19 01:31N 50°29' W 003°20'816.2
2018-Jan-19 01:01N 50°28' W 003°08'815.6
2018-Jan-19 00:31N 50°28' W 002°55'815.1
2018-Jan-19 00:01N 50°26' W 002°44'714.4
2018-Jan-18 23:31N 50°25' W 002°33'713.7
2018-Jan-18 23:00N 50°24' W 002°22'713.0
2018-Jan-18 22:29N 50°24' W 002°11'712.3
2018-Jan-18 21:56N 50°24' W 002°01'511.6
2018-Jan-18 21:28N 50°24' W 001°52'511.2
2018-Jan-18 21:00N 50°24' W 001°44'611.4
2018-Jan-18 20:29N 50°24' W 001°35'1911.7
2018-Jan-18 18:54N 50°26' W 001°06'513.8
2018-Jan-18 18:30N 50°26' W 000°57'815.1
2018-Jan-18 17:59N 50°27' W 000°45'816.0
2018-Jan-18 17:30N 50°28' W 000°33'816.4
2018-Jan-18 17:00N 50°28' W 000°20'816.6
2018-Jan-18 16:30N 50°30' W 000°07'917.0
2018-Jan-18 16:00N 50°32' E 000°06'816.3
2018-Jan-18 15:30N 50°34' E 000°18'816.0
2018-Jan-18 15:00N 50°36' E 000°30'715.0
2018-Jan-18 14:30N 50°39' E 000°41'714.9
2018-Jan-18 14:00N 50°43' E 000°51'714.0
2018-Jan-18 13:30N 50°48' E 000°60'813.6
2018-Jan-18 12:56N 50°53' E 001°08'713.8
2018-Jan-18 12:26N 50°58' E 001°16'612.9
2018-Jan-18 12:00N 51°02' E 001°23'612.9
2018-Jan-18 11:30N 51°06' E 001°31'612.4
2018-Jan-18 11:00N 51°10' E 001°38'713.3
2018-Jan-18 10:29N 51°15' E 001°46'714.8
2018-Jan-18 10:00N 51°21' E 001°50'714.9
2018-Jan-18 09:30N 51°27' E 001°57'714.8
2018-Jan-18 09:00N 51°33' E 002°05'6211.5
2018-Jan-18 03:34N 52°03' E 003°34'113.3
2018-Jan-18 03:30N 52°03' E 003°35'714.5
2018-Jan-18 03:00N 52°02' E 003°47'713.8
2018-Jan-18 02:31N 52°01' E 003°58'714.4
2018-Jan-18 02:01N 51°58' E 004°08'4 7.9
2018-Jan-18 01:30N 51°55' E 004°13'2 3.1
2018-Jan-18 01:01N 51°54' E 004°14'0 0.0
2018-Jan-17 23:55N 51°54' E 004°14'  
Track history (hours):
 
Tides and Currents Weather Stations Pressure Air Temp Water Temp Dewpoint Dewpoint Depression Visibility Wind Speed Wind Dir Waves Ship Positions

Palatine

Last reported at 2018-Jan-22 23:42 UTC. Time now 2018-Jan-23 20:10 UTC.
Position N 41°16' W 008°49'.

Length 194 m; draft 6.7 m.

Type: Ship. MMSI: 248064000.

Date/timePositionNaut miles runAvg speedWind from/ knotsBaromVisibWave heightAir tempDewpointWater temp
2018-Jan-22 23:42N 41°16' W 008°49'316.2
2018-Jan-22 23:30N 41°13' W 008°47'4 8.2
2018-Jan-22 23:00N 41°11' W 008°42'0 0.1
2018-Jan-22 22:30N 41°11' W 008°42'0 0.0
2018-Jan-22 22:00N 41°11' W 008°42'0 0.0
2018-Jan-22 21:30N 41°11' W 008°42'0 0.0
2018-Jan-22 20:59N 41°11' W 008°42'0 0.0
2018-Jan-22 20:29N 41°11' W 008°42'0 0.0
2018-Jan-22 19:59N 41°11' W 008°42'0 0.0
2018-Jan-22 19:29N 41°11' W 008°42'0 0.0
2018-Jan-22 18:58N 41°11' W 008°42'0 0.0
2018-Jan-22 18:27N 41°11' W 008°42'0 0.0
2018-Jan-22 17:57N 41°11' W 008°42'0 0.0
2018-Jan-22 17:27N 41°11' W 008°42'0 0.0
2018-Jan-22 16:57N 41°11' W 008°42'0 0.0
2018-Jan-22 16:27N 41°11' W 008°42'0 0.0
2018-Jan-22 15:56N 41°11' W 008°42'0 0.0
2018-Jan-22 15:26N 41°11' W 008°42'0 0.0
2018-Jan-22 14:56N 41°11' W 008°42'0 0.0
2018-Jan-22 14:26N 41°11' W 008°42'0 0.0
2018-Jan-22 13:56N 41°11' W 008°42'0 0.0
2018-Jan-22 13:25N 41°11' W 008°42'0 0.0
2018-Jan-22 12:55N 41°11' W 008°42'0 0.0
2018-Jan-22 12:25N 41°11' W 008°42'0 0.0
2018-Jan-22 11:55N 41°11' W 008°42'0 0.0
2018-Jan-22 11:31N 41°11' W 008°42'0 0.0
2018-Jan-22 11:00N 41°11' W 008°42'0 0.0
2018-Jan-22 10:30N 41°11' W 008°42'0 0.5
2018-Jan-22 10:01N 41°11' W 008°42'3 5.4
2018-Jan-22 09:31N 41°08' W 008°44'4 7.5
2018-Jan-22 08:57N 41°12' W 008°47'263 7.2
2018-Jan-20 20:15N 43°31' W 003°45'414.6
2018-Jan-20 20:00N 43°35' W 003°47'714.4
2018-Jan-20 19:30N 43°41' W 003°49'36512.7
2018-Jan-19 14:51N 49°44' W 004°48'514.9
2018-Jan-19 14:30N 49°48' W 004°43'815.3
2018-Jan-19 14:01N 49°54' W 004°36'714.6
2018-Jan-19 13:31N 49°58' W 004°26'915.8
2018-Jan-19 12:58N 49°59' W 004°13'715.0
2018-Jan-19 12:30N 50°01' W 004°02'811.8
2018-Jan-19 11:49N 50°02' W 003°50'2 2.4
2018-Jan-19 11:10N 50°03' W 003°47'0 0.0
2018-Jan-19 10:57N 50°03' W 003°47'0 0.1
2018-Jan-19 10:14N 50°03' W 003°47'0 1.8
2018-Jan-19 10:00N 50°03' W 003°48'1 2.1
2018-Jan-19 09:29N 50°03' W 003°50'510.0
2018-Jan-19 09:00N 50°06' W 003°44'714.5
2018-Jan-19 08:30N 50°11' W 003°36'714.8
2018-Jan-19 08:00N 50°17' W 003°30'815.4
2018-Jan-19 07:30N 50°25' W 003°27'5 9.7
2018-Jan-19 06:59N 50°30' W 003°28'0 0.1
2018-Jan-19 06:29N 50°30' W 003°28'0 0.1
2018-Jan-19 05:58N 50°30' W 003°28'0 0.1
2018-Jan-19 05:28N 50°30' W 003°28'0 0.1
2018-Jan-19 04:58N 50°30' W 003°28'0 0.0
2018-Jan-19 04:28N 50°30' W 003°28'0 0.0
2018-Jan-19 03:57N 50°30' W 003°28'0 0.0
2018-Jan-19 03:27N 50°30' W 003°28'0 0.1
2018-Jan-19 02:57N 50°30' W 003°28'0 0.1
2018-Jan-19 02:27N 50°30' W 003°28'0 0.1
2018-Jan-19 02:00N 50°30' W 003°28'5 9.5
2018-Jan-19 01:31N 50°29' W 003°20'816.2
2018-Jan-19 01:01N 50°28' W 003°08'815.6
2018-Jan-19 00:31N 50°28' W 002°55'815.1
2018-Jan-19 00:01N 50°26' W 002°44'714.4
2018-Jan-18 23:31N 50°25' W 002°33'713.7
2018-Jan-18 23:00N 50°24' W 002°22'713.0
2018-Jan-18 22:29N 50°24' W 002°11'712.3
2018-Jan-18 21:56N 50°24' W 002°01'511.6
2018-Jan-18 21:28N 50°24' W 001°52'511.2
2018-Jan-18 21:00N 50°24' W 001°44'611.4
2018-Jan-18 20:29N 50°24' W 001°35'1911.7
2018-Jan-18 18:54N 50°26' W 001°06'513.8
2018-Jan-18 18:30N 50°26' W 000°57'815.1
2018-Jan-18 17:59N 50°27' W 000°45'816.0
2018-Jan-18 17:30N 50°28' W 000°33'816.4
2018-Jan-18 17:00N 50°28' W 000°20'816.6
2018-Jan-18 16:30N 50°30' W 000°07'917.0
2018-Jan-18 16:00N 50°32' E 000°06'816.3
2018-Jan-18 15:30N 50°34' E 000°18'816.0
2018-Jan-18 15:00N 50°36' E 000°30'715.0
2018-Jan-18 14:30N 50°39' E 000°41'714.9
2018-Jan-18 14:00N 50°43' E 000°51'714.0
2018-Jan-18 13:30N 50°48' E 000°60'813.6
2018-Jan-18 12:56N 50°53' E 001°08'713.8
2018-Jan-18 12:26N 50°58' E 001°16'612.9
2018-Jan-18 12:00N 51°02' E 001°23'612.9
2018-Jan-18 11:30N 51°06' E 001°31'612.4
2018-Jan-18 11:00N 51°10' E 001°38'713.3
2018-Jan-18 10:29N 51°15' E 001°46'714.8
2018-Jan-18 10:00N 51°21' E 001°50'714.9
2018-Jan-18 09:30N 51°27' E 001°57'714.8
2018-Jan-18 09:00N 51°33' E 002°05'6211.5
2018-Jan-18 03:34N 52°03' E 003°34'113.3
2018-Jan-18 03:30N 52°03' E 003°35'714.5
2018-Jan-18 03:00N 52°02' E 003°47'713.8
2018-Jan-18 02:31N 52°01' E 003°58'714.4
2018-Jan-18 02:01N 51°58' E 004°08'4 7.9
2018-Jan-18 01:30N 51°55' E 004°13'2 3.1
2018-Jan-18 01:01N 51°54' E 004°14'0 0.0
2018-Jan-17 23:55N 51°54' E 004°14'  

Dump ship's entire track history